DNMM/LOS METAR and TAF weather

Enter ICAO airport designator
Station Type Date Time Source
DNMM METAR 2018/07/20 14:00 UTC NOAA

DNMM 201400Z 22009KT 6000 -RA BKN010 FEW020CB 26/24 Q1013 NOSIG


Station Type Date Time Source
DNMM Decoded METAR 2018/07/20 14:00 UTC NOAA

Lagos / Ikeja, Nigeria (DNMM) 06-35N 003-20E 38M
Jul 20, 2018 - 10:00 AM EDT / 2018.07.20 1400 UTC
Wind: from the SW (220 degrees) at 10 MPH (9 KT):0
Visibility: 3 mile(s):0
Sky conditions: mostly cloudy
Weather: light rain; Cumulonimbus clouds observed
Temperature: 78 F (26 C)
Dew Point: 75 F (24 C)
Relative Humidity: 88%
Pressure (altimeter): 29.91 in. Hg (1013 hPa)
ob: DNMM 201400Z 22009KT 6000 -RA BKN010 FEW020CB 26/24 Q1013 NOSIG
cycle: 14

Station Type Date Time Source
DNMM TAF 2018/07/20 12:21 UTC NOAA

TAF DNMM 200950Z 2012/2118 22010KT 8000 BKN012 FEW020CB
TEMPO 2012/2018 -RA PROB30 2015/2018 5000 -TSRA BKN009 FEW019CB
BECMG 2018/2020 VRB02KT FEW009


Example: see airport list